Airfield :
LOGIN :

Register | Disclaimer

   EN    FR    IT 

 










Legend :    VFR   Marginal VFR   IFR   Intensive IFR   Very Intensive IFR
Visi :
Ceiling :
>= 8 km
>= 3000ft
5 to 8 km
1000 to 3000 ft
1500m to 5 km
500 to 1000 ft
800 to 1500m
200 to 500 ft
< 800m
< 200 ft
Symbols :   Thunderstorms  Fog  Heavy snow  Heavy precipitations  Wind > 20 kt
SIGMETs :     Misc.  Thunderstorms  Icing  Turbulence  Mountain Waves  Volcanic Ashes






- Airport Elevation : 141 ft
- IATA code : SKS


EKSP - Srydstrup Vojens

CURRENT METAR :
  • 151720Z 25018KT 9999 FEW036 BKN060 05/02 Q0994

EXPIRED METARs :
  • 151650Z 26020KT 9999 FEW017CB SCT036 BKN055 06/02 Q0993
  • 151620Z 26021KT 8000 -SHRA SCT017CB SCT024 BKN036 05/03 Q0992
  • 151601Z 25022G34KT 9999 FEW017CB SCT024 BKN036 06/03 Q0991
  • 151550Z 25021KT 9999 FEW017CB SCT024 BKN036 06/04 Q0991
  • 151520Z 27026KT 9999 -SHRA FEW012 SCT017CB BKN030 06/03 Q0990
  • 151450Z 26033G45KT 8000 SHRA FEW012 BKN017CB 05/03 Q0989
  • 151442Z 26033G59KT 8000 SHRA FEW012 BKN017CB BKN030 05/03 Q0988

TAF TAF EKSP
Valid from the 15 at 18:00 until the 16 at 18:00 UTC


151724Z 1518/1618 21012KT 9999 SCT020
TEMPO 1518/1604 25015KT 6000 -SHRA SCT015CB
TEMPO 1604/1611 4000 SHRA BKN006 BKN015CB
TEMPO 1614/1618 BKN010



MET'MAP, your aeronautical weather chart ! - Copyright ORBIFLY December 2007 - Disclaimer

ORBIFLY MET'MAP TEAM :

Programming & Development : Alexandra Zaïnal
Concept & original design : Baudouin d'Aumeries
Assistance for programming : Marc-Olivier Méhu
Technical & hardware support : Manuel Goepfert

Contact : metmap@orbifly.com




SOURCES & CREDITS :

   NOAA